sensor_id;sensor_type;location;lat;lon;timestamp;P1;durP1;ratioP1;P2;durP2;ratioP2
46391;SDS011;32098;49.448;7.904;2022-09-29T00:00:20;4.00;;;2.60;;
46391;SDS011;32098;49.448;7.904;2022-09-29T00:02:47;26.23;;;3.00;;
46391;SDS011;32098;49.448;7.904;2022-09-29T00:05:13;5.67;;;2.40;;
46391;SDS011;32098;49.448;7.904;2022-09-29T00:07:40;44.77;;;3.67;;
46391;SDS011;32098;49.448;7.904;2022-09-29T00:10:06;4.03;;;2.60;;
46391;SDS011;32098;49.448;7.904;2022-09-29T00:12:33;4.03;;;2.43;;
46391;SDS011;32098;49.448;7.904;2022-09-29T00:14:59;3.97;;;2.50;;
46391;SDS011;32098;49.448;7.904;2022-09-29T00:17:26;43.27;;;3.17;;
46391;SDS011;32098;49.448;7.904;2022-09-29T00:19:52;10.17;;;2.50;;
46391;SDS011;32098;49.448;7.904;2022-09-29T00:22:19;19.33;;;2.73;;
46391;SDS011;32098;49.448;7.904;2022-09-29T00:24:46;8.50;;;2.60;;
46391;SDS011;32098;49.448;7.904;2022-09-29T00:27:14;7.93;;;2.13;;
46391;SDS011;32098;49.448;7.904;2022-09-29T00:29:41;17.90;;;2.63;;
46391;SDS011;32098;49.448;7.904;2022-09-29T00:32:07;4.47;;;2.43;;
46391;SDS011;32098;49.448;7.904;2022-09-29T00:34:34;7.83;;;2.60;;
46391;SDS011;32098;49.448;7.904;2022-09-29T00:37:00;5.03;;;2.40;;
46391;SDS011;32098;49.448;7.904;2022-09-29T00:39:27;8.87;;;2.43;;
46391;SDS011;32098;49.448;7.904;2022-09-29T00:41:53;4.70;;;2.13;;
46391;SDS011;32098;49.448;7.904;2022-09-29T00:49:26;3.87;;;2.50;;
46391;SDS011;32098;49.448;7.904;2022-09-29T00:52:00;3.43;;;2.50;;
46391;SDS011;32098;49.448;7.904;2022-09-29T00:54:31;3.10;;;2.80;;
46391;SDS011;32098;49.448;7.904;2022-09-29T00:57:04;7.97;;;2.23;;
46391;SDS011;32098;49.448;7.904;2022-09-29T00:59:39;6.73;;;2.40;;
46391;SDS011;32098;49.448;7.904;2022-09-29T01:02:07;5.57;;;2.10;;
46391;SDS011;32098;49.448;7.904;2022-09-29T01:04:35;3.77;;;1.90;;
46391;SDS011;32098;49.448;7.904;2022-09-29T01:07:02;3.13;;;1.93;;
46391;SDS011;32098;49.448;7.904;2022-09-29T01:09:30;9.43;;;2.40;;
46391;SDS011;32098;49.448;7.904;2022-09-29T01:12:00;16.43;;;2.30;;
46391;SDS011;32098;49.448;7.904;2022-09-29T01:14:27;76.77;;;3.50;;
46391;SDS011;32098;49.448;7.904;2022-09-29T01:16:55;13.33;;;2.13;;
46391;SDS011;32098;49.448;7.904;2022-09-29T01:19:33;23.83;;;2.30;;
46391;SDS011;32098;49.448;7.904;2022-09-29T01:35:31;9.57;;;2.30;;
46391;SDS011;32098;49.448;7.904;2022-09-29T01:38:30;9.00;;;2.13;;
46391;SDS011;32098;49.448;7.904;2022-09-29T01:43:52;18.87;;;2.50;;
46391;SDS011;32098;49.448;7.904;2022-09-29T01:46:38;2.23;;;2.00;;
46391;SDS011;32098;49.448;7.904;2022-09-29T01:49:09;15.10;;;2.23;;
46391;SDS011;32098;49.448;7.904;2022-09-29T01:51:42;3.10;;;1.90;;
46391;SDS011;32098;49.448;7.904;2022-09-29T01:54:27;5.47;;;1.80;;
46391;SDS011;32098;49.448;7.904;2022-09-29T01:57:22;20.83;;;2.27;;
46391;SDS011;32098;49.448;7.904;2022-09-29T01:59:56;10.73;;;1.80;;
46391;SDS011;32098;49.448;7.904;2022-09-29T02:02:42;2.33;;;2.00;;
46391;SDS011;32098;49.448;7.904;2022-09-29T02:05:20;5.90;;;2.10;;
46391;SDS011;32098;49.448;7.904;2022-09-29T02:07:51;3.37;;;1.93;;
46391;SDS011;32098;49.448;7.904;2022-09-29T02:10:30;3.13;;;2.10;;
46391;SDS011;32098;49.448;7.904;2022-09-29T02:13:03;5.33;;;2.07;;
46391;SDS011;32098;49.448;7.904;2022-09-29T02:15:33;2.60;;;2.13;;
46391;SDS011;32098;49.448;7.904;2022-09-29T02:18:05;3.33;;;2.07;;
46391;SDS011;32098;49.448;7.904;2022-09-29T02:20:41;2.80;;;2.00;;
46391;SDS011;32098;49.448;7.904;2022-09-29T02:23:07;2.57;;;2.37;;
46391;SDS011;32098;49.448;7.904;2022-09-29T02:25:34;5.03;;;3.97;;
46391;SDS011;32098;49.448;7.904;2022-09-29T02:28:03;7.60;;;4.03;;
46391;SDS011;32098;49.448;7.904;2022-09-29T02:30:33;5.27;;;3.20;;
46391;SDS011;32098;49.448;7.904;2022-09-29T02:33:00;4.83;;;2.10;;
46391;SDS011;32098;49.448;7.904;2022-09-29T02:35:28;4.53;;;2.20;;
46391;SDS011;32098;49.448;7.904;2022-09-29T02:38:11;64.60;;;2.83;;
46391;SDS011;32098;49.448;7.904;2022-09-29T02:57:44;1.90;;;1.77;;
46391;SDS011;32098;49.448;7.904;2022-09-29T03:00:16;3.27;;;1.93;;
46391;SDS011;32098;49.448;7.904;2022-09-29T03:02:44;4.00;;;2.20;;
46391;SDS011;32098;49.448;7.904;2022-09-29T03:05:13;4.57;;;1.90;;
46391;SDS011;32098;49.448;7.904;2022-09-29T03:07:41;2.10;;;1.90;;
46391;SDS011;32098;49.448;7.904;2022-09-29T03:10:09;38.73;;;2.50;;
46391;SDS011;32098;49.448;7.904;2022-09-29T03:12:37;1.87;;;1.60;;
46391;SDS011;32098;49.448;7.904;2022-09-29T03:15:04;3.10;;;1.90;;
46391;SDS011;32098;49.448;7.904;2022-09-29T03:17:32;2.77;;;1.87;;
46391;SDS011;32098;49.448;7.904;2022-09-29T03:19:58;13.30;;;2.00;;
46391;SDS011;32098;49.448;7.904;2022-09-29T03:22:25;2.10;;;1.90;;
46391;SDS011;32098;49.448;7.904;2022-09-29T03:24:51;2.63;;;1.87;;
46391;SDS011;32098;49.448;7.904;2022-09-29T03:27:18;2.60;;;1.90;;
46391;SDS011;32098;49.448;7.904;2022-09-29T03:29:45;2.00;;;1.80;;
46391;SDS011;32098;49.448;7.904;2022-09-29T03:32:12;2.03;;;1.60;;
46391;SDS011;32098;49.448;7.904;2022-09-29T03:34:38;2.23;;;1.83;;
46391;SDS011;32098;49.448;7.904;2022-09-29T03:37:05;1.90;;;1.70;;
46391;SDS011;32098;49.448;7.904;2022-09-29T03:39:31;2.00;;;1.57;;
46391;SDS011;32098;49.448;7.904;2022-09-29T03:41:57;1.50;;;1.40;;
46391;SDS011;32098;49.448;7.904;2022-09-29T03:44:24;2.10;;;1.90;;
46391;SDS011;32098;49.448;7.904;2022-09-29T03:46:50;1.70;;;1.60;;
46391;SDS011;32098;49.448;7.904;2022-09-29T03:49:17;2.07;;;1.73;;
46391;SDS011;32098;49.448;7.904;2022-09-29T03:51:43;4.07;;;1.77;;
46391;SDS011;32098;49.448;7.904;2022-09-29T03:54:10;2.03;;;1.67;;
46391;SDS011;32098;49.448;7.904;2022-09-29T03:56:37;2.00;;;1.77;;
46391;SDS011;32098;49.448;7.904;2022-09-29T03:59:04;9.00;;;2.27;;
46391;SDS011;32098;49.448;7.904;2022-09-29T04:01:34;26.27;;;2.50;;
46391;SDS011;32098;49.448;7.904;2022-09-29T04:04:01;11.73;;;2.00;;
46391;SDS011;32098;49.448;7.904;2022-09-29T04:06:27;4.40;;;2.33;;
46391;SDS011;32098;49.448;7.904;2022-09-29T04:08:54;2.50;;;2.20;;
46391;SDS011;32098;49.448;7.904;2022-09-29T04:11:20;2.23;;;2.03;;
46391;SDS011;32098;49.448;7.904;2022-09-29T04:13:46;11.17;;;2.17;;
46391;SDS011;32098;49.448;7.904;2022-09-29T04:16:13;2.57;;;2.10;;
46391;SDS011;32098;49.448;7.904;2022-09-29T04:18:40;2.57;;;2.20;;
46391;SDS011;32098;49.448;7.904;2022-09-29T04:21:06;2.03;;;1.80;;
46391;SDS011;32098;49.448;7.904;2022-09-29T04:23:34;2.60;;;1.87;;
46391;SDS011;32098;49.448;7.904;2022-09-29T04:26:01;1.83;;;1.53;;
46391;SDS011;32098;49.448;7.904;2022-09-29T04:28:32;2.30;;;1.60;;
46391;SDS011;32098;49.448;7.904;2022-09-29T04:31:00;2.13;;;1.50;;
46391;SDS011;32098;49.448;7.904;2022-09-29T04:33:27;2.57;;;1.70;;
46391;SDS011;32098;49.448;7.904;2022-09-29T04:35:55;2.20;;;1.60;;
46391;SDS011;32098;49.448;7.904;2022-09-29T04:38:22;3.00;;;1.73;;
46391;SDS011;32098;49.448;7.904;2022-09-29T04:40:49;1.90;;;1.60;;
46391;SDS011;32098;49.448;7.904;2022-09-29T04:43:16;2.23;;;1.70;;
46391;SDS011;32098;49.448;7.904;2022-09-29T04:45:44;2.87;;;1.70;;
46391;SDS011;32098;49.448;7.904;2022-09-29T04:48:10;3.17;;;1.90;;
46391;SDS011;32098;49.448;7.904;2022-09-29T04:50:37;2.30;;;2.03;;
46391;SDS011;32098;49.448;7.904;2022-09-29T04:53:04;2.97;;;2.00;;
46391;SDS011;32098;49.448;7.904;2022-09-29T04:55:31;3.67;;;2.10;;
46391;SDS011;32098;49.448;7.904;2022-09-29T04:57:58;3.73;;;1.90;;
46391;SDS011;32098;49.448;7.904;2022-09-29T05:00:24;8.60;;;3.20;;
46391;SDS011;32098;49.448;7.904;2022-09-29T05:02:51;6.97;;;3.23;;
46391;SDS011;32098;49.448;7.904;2022-09-29T05:05:17;4.90;;;3.20;;
46391;SDS011;32098;49.448;7.904;2022-09-29T05:07:44;10.60;;;6.07;;
46391;SDS011;32098;49.448;7.904;2022-09-29T05:10:11;7.77;;;6.27;;
46391;SDS011;32098;49.448;7.904;2022-09-29T05:12:37;13.77;;;6.30;;
46391;SDS011;32098;49.448;7.904;2022-09-29T05:15:03;8.37;;;5.17;;
46391;SDS011;32098;49.448;7.904;2022-09-29T05:17:31;6.50;;;4.50;;
46391;SDS011;32098;49.448;7.904;2022-09-29T05:19:57;6.67;;;4.40;;
46391;SDS011;32098;49.448;7.904;2022-09-29T05:22:24;7.50;;;4.47;;
46391;SDS011;32098;49.448;7.904;2022-09-29T05:24:51;4.70;;;4.07;;
46391;SDS011;32098;49.448;7.904;2022-09-29T05:27:18;17.83;;;3.87;;
46391;SDS011;32098;49.448;7.904;2022-09-29T05:29:45;6.60;;;3.97;;
46391;SDS011;32098;49.448;7.904;2022-09-29T05:32:11;4.77;;;3.70;;
46391;SDS011;32098;49.448;7.904;2022-09-29T05:34:38;5.93;;;4.10;;
46391;SDS011;32098;49.448;7.904;2022-09-29T05:37:04;6.07;;;1.97;;
46391;SDS011;32098;49.448;7.904;2022-09-29T05:39:31;2.00;;;1.67;;
46391;SDS011;32098;49.448;7.904;2022-09-29T05:42:00;2.10;;;1.50;;
46391;SDS011;32098;49.448;7.904;2022-09-29T05:44:27;5.17;;;1.63;;
46391;SDS011;32098;49.448;7.904;2022-09-29T05:46:54;2.27;;;1.70;;
46391;SDS011;32098;49.448;7.904;2022-09-29T05:49:20;2.23;;;1.77;;
46391;SDS011;32098;49.448;7.904;2022-09-29T05:51:48;2.10;;;1.60;;
46391;SDS011;32098;49.448;7.904;2022-09-29T05:54:14;1.50;;;1.40;;
46391;SDS011;32098;49.448;7.904;2022-09-29T05:56:41;4.07;;;1.60;;
46391;SDS011;32098;49.448;7.904;2022-09-29T05:59:10;3.40;;;1.70;;
46391;SDS011;32098;49.448;7.904;2022-09-29T06:01:38;4.00;;;1.73;;
46391;SDS011;32098;49.448;7.904;2022-09-29T06:04:05;3.03;;;1.60;;
46391;SDS011;32098;49.448;7.904;2022-09-29T06:06:31;2.67;;;1.77;;
46391;SDS011;32098;49.448;7.904;2022-09-29T06:08:58;5.00;;;1.90;;
46391;SDS011;32098;49.448;7.904;2022-09-29T06:11:26;4.53;;;2.43;;
46391;SDS011;32098;49.448;7.904;2022-09-29T06:13:54;5.13;;;2.90;;
46391;SDS011;32098;49.448;7.904;2022-09-29T06:16:24;3.37;;;2.90;;
46391;SDS011;32098;49.448;7.904;2022-09-29T06:18:52;2.70;;;2.50;;
46391;SDS011;32098;49.448;7.904;2022-09-29T06:21:20;4.20;;;2.57;;
46391;SDS011;32098;49.448;7.904;2022-09-29T06:23:52;2.63;;;1.90;;
46391;SDS011;32098;49.448;7.904;2022-09-29T06:26:20;2.13;;;1.93;;
46391;SDS011;32098;49.448;7.904;2022-09-29T06:28:50;3.13;;;2.10;;
46391;SDS011;32098;49.448;7.904;2022-09-29T06:31:18;4.50;;;2.07;;
46391;SDS011;32098;49.448;7.904;2022-09-29T06:33:46;2.70;;;2.00;;
46391;SDS011;32098;49.448;7.904;2022-09-29T06:36:17;3.87;;;1.90;;
46391;SDS011;32098;49.448;7.904;2022-09-29T06:39:04;3.83;;;1.90;;
46391;SDS011;32098;49.448;7.904;2022-09-29T06:41:33;2.60;;;1.97;;
46391;SDS011;32098;49.448;7.904;2022-09-29T06:44:00;3.90;;;2.20;;
46391;SDS011;32098;49.448;7.904;2022-09-29T06:46:27;3.53;;;2.30;;
46391;SDS011;32098;49.448;7.904;2022-09-29T06:48:54;4.53;;;2.13;;
46391;SDS011;32098;49.448;7.904;2022-09-29T06:51:22;3.73;;;2.30;;
46391;SDS011;32098;49.448;7.904;2022-09-29T06:54:00;2.50;;;1.80;;
46391;SDS011;32098;49.448;7.904;2022-09-29T06:56:37;3.40;;;2.00;;
46391;SDS011;32098;49.448;7.904;2022-09-29T06:59:03;1.80;;;1.60;;
46391;SDS011;32098;49.448;7.904;2022-09-29T07:01:30;3.53;;;1.93;;
46391;SDS011;32098;49.448;7.904;2022-09-29T07:03:56;4.73;;;2.30;;
46391;SDS011;32098;49.448;7.904;2022-09-29T07:06:25;3.80;;;2.17;;
46391;SDS011;32098;49.448;7.904;2022-09-29T07:08:53;5.27;;;3.80;;
46391;SDS011;32098;49.448;7.904;2022-09-29T07:11:20;10.50;;;6.40;;
46391;SDS011;32098;49.448;7.904;2022-09-29T07:13:48;8.37;;;5.27;;
46391;SDS011;32098;49.448;7.904;2022-09-29T07:16:20;5.73;;;4.40;;
46391;SDS011;32098;49.448;7.904;2022-09-29T07:18:49;5.10;;;4.07;;
46391;SDS011;32098;49.448;7.904;2022-09-29T07:21:17;5.03;;;2.97;;
46391;SDS011;32098;49.448;7.904;2022-09-29T07:23:44;2.43;;;2.20;;
46391;SDS011;32098;49.448;7.904;2022-09-29T07:26:13;2.53;;;2.00;;
46391;SDS011;32098;49.448;7.904;2022-09-29T07:28:41;3.40;;;2.07;;
46391;SDS011;32098;49.448;7.904;2022-09-29T07:31:09;6.97;;;2.37;;
46391;SDS011;32098;49.448;7.904;2022-09-29T07:33:42;4.27;;;2.60;;
46391;SDS011;32098;49.448;7.904;2022-09-29T07:36:09;4.47;;;2.40;;
46391;SDS011;32098;49.448;7.904;2022-09-29T07:38:36;3.33;;;1.97;;
46391;SDS011;32098;49.448;7.904;2022-09-29T07:41:04;2.83;;;2.37;;
46391;SDS011;32098;49.448;7.904;2022-09-29T07:43:33;4.10;;;2.27;;
46391;SDS011;32098;49.448;7.904;2022-09-29T07:46:00;4.93;;;3.03;;
46391;SDS011;32098;49.448;7.904;2022-09-29T07:48:27;3.07;;;2.50;;
46391;SDS011;32098;49.448;7.904;2022-09-29T07:51:04;5.47;;;3.10;;
46391;SDS011;32098;49.448;7.904;2022-09-29T07:53:34;3.40;;;3.00;;
46391;SDS011;32098;49.448;7.904;2022-09-29T07:56:14;5.20;;;3.27;;
46391;SDS011;32098;49.448;7.904;2022-09-29T07:58:44;4.60;;;3.17;;
46391;SDS011;32098;49.448;7.904;2022-09-29T08:01:12;3.93;;;2.50;;
46391;SDS011;32098;49.448;7.904;2022-09-29T08:03:43;6.87;;;3.00;;
46391;SDS011;32098;49.448;7.904;2022-09-29T08:06:12;3.67;;;2.57;;
46391;SDS011;32098;49.448;7.904;2022-09-29T08:08:40;4.43;;;2.50;;
46391;SDS011;32098;49.448;7.904;2022-09-29T08:11:19;3.60;;;2.43;;
46391;SDS011;32098;49.448;7.904;2022-09-29T08:13:56;4.40;;;2.53;;
46391;SDS011;32098;49.448;7.904;2022-09-29T08:16:23;4.87;;;2.60;;
46391;SDS011;32098;49.448;7.904;2022-09-29T08:18:49;4.70;;;3.00;;
46391;SDS011;32098;49.448;7.904;2022-09-29T08:21:16;4.83;;;2.87;;
46391;SDS011;32098;49.448;7.904;2022-09-29T08:23:42;5.40;;;3.07;;
46391;SDS011;32098;49.448;7.904;2022-09-29T08:26:10;5.87;;;2.67;;
46391;SDS011;32098;49.448;7.904;2022-09-29T08:28:42;3.83;;;2.70;;
46391;SDS011;32098;49.448;7.904;2022-09-29T08:31:20;3.80;;;2.73;;
46391;SDS011;32098;49.448;7.904;2022-09-29T08:33:48;3.53;;;2.67;;
46391;SDS011;32098;49.448;7.904;2022-09-29T08:36:16;3.03;;;2.70;;
46391;SDS011;32098;49.448;7.904;2022-09-29T08:38:46;6.67;;;2.60;;
46391;SDS011;32098;49.448;7.904;2022-09-29T08:41:19;5.43;;;2.90;;
46391;SDS011;32098;49.448;7.904;2022-09-29T08:43:49;3.70;;;3.00;;
46391;SDS011;32098;49.448;7.904;2022-09-29T08:49:38;5.97;;;3.50;;
46391;SDS011;32098;49.448;7.904;2022-09-29T08:52:11;4.80;;;3.97;;
46391;SDS011;32098;49.448;7.904;2022-09-29T08:57:47;9.73;;;5.00;;
46391;SDS011;32098;49.448;7.904;2022-09-29T09:00:19;9.47;;;4.03;;
46391;SDS011;32098;49.448;7.904;2022-09-29T09:08:16;7.40;;;4.37;;
46391;SDS011;32098;49.448;7.904;2022-09-29T09:11:04;6.33;;;4.70;;
46391;SDS011;32098;49.448;7.904;2022-09-29T09:17:03;5.67;;;3.63;;
46391;SDS011;32098;49.448;7.904;2022-09-29T09:22:49;7.53;;;3.20;;
46391;SDS011;32098;49.448;7.904;2022-09-29T09:28:19;6.17;;;2.87;;
46391;SDS011;32098;49.448;7.904;2022-09-29T09:30:54;5.70;;;3.07;;
46391;SDS011;32098;49.448;7.904;2022-09-29T09:33:36;5.03;;;3.10;;
46391;SDS011;32098;49.448;7.904;2022-09-29T09:36:10;5.43;;;3.20;;
46391;SDS011;32098;49.448;7.904;2022-09-29T09:39:02;4.70;;;3.20;;
46391;SDS011;32098;49.448;7.904;2022-09-29T09:41:32;4.57;;;3.20;;
46391;SDS011;32098;49.448;7.904;2022-09-29T09:44:16;6.47;;;2.90;;
46391;SDS011;32098;49.448;7.904;2022-09-29T09:46:53;4.73;;;3.07;;
46391;SDS011;32098;49.448;7.904;2022-09-29T09:49:25;3.60;;;2.90;;
46391;SDS011;32098;49.448;7.904;2022-09-29T09:54:30;4.80;;;2.93;;
46391;SDS011;32098;49.448;7.904;2022-09-29T09:59:42;3.87;;;3.00;;
46391;SDS011;32098;49.448;7.904;2022-09-29T10:02:18;8.30;;;3.10;;
46391;SDS011;32098;49.448;7.904;2022-09-29T10:04:47;4.37;;;3.10;;
46391;SDS011;32098;49.448;7.904;2022-09-29T10:07:19;5.23;;;2.90;;
46391;SDS011;32098;49.448;7.904;2022-09-29T10:09:46;6.17;;;3.00;;
46391;SDS011;32098;49.448;7.904;2022-09-29T10:12:15;6.53;;;2.87;;
46391;SDS011;32098;49.448;7.904;2022-09-29T10:15:35;4.53;;;2.57;;
46391;SDS011;32098;49.448;7.904;2022-09-29T10:17:52;5.00;;;2.53;;
46391;SDS011;32098;49.448;7.904;2022-09-29T10:20:33;5.40;;;2.97;;
46391;SDS011;32098;49.448;7.904;2022-09-29T10:23:19;5.80;;;2.80;;
46391;SDS011;32098;49.448;7.904;2022-09-29T10:28:42;4.07;;;2.87;;
46391;SDS011;32098;49.448;7.904;2022-09-29T10:31:15;8.60;;;2.90;;
46391;SDS011;32098;49.448;7.904;2022-09-29T10:33:56;4.55;;;2.55;;
46391;SDS011;32098;49.448;7.904;2022-09-29T10:36:31;4.70;;;2.50;;
46391;SDS011;32098;49.448;7.904;2022-09-29T10:39:30;3.78;;;2.25;;
46391;SDS011;32098;49.448;7.904;2022-09-29T10:41:59;6.47;;;2.63;;
46391;SDS011;32098;49.448;7.904;2022-09-29T10:44:29;5.63;;;2.30;;
46391;SDS011;32098;49.448;7.904;2022-09-29T10:46:58;4.50;;;2.37;;
46391;SDS011;32098;49.448;7.904;2022-09-29T10:49:25;5.37;;;2.67;;
46391;SDS011;32098;49.448;7.904;2022-09-29T10:52:02;3.57;;;2.23;;
46391;SDS011;32098;49.448;7.904;2022-09-29T10:54:32;5.73;;;2.33;;
46391;SDS011;32098;49.448;7.904;2022-09-29T10:57:10;3.77;;;2.10;;
46391;SDS011;32098;49.448;7.904;2022-09-29T10:59:45;4.68;;;2.10;;
46391;SDS011;32098;49.448;7.904;2022-09-29T11:02:19;6.70;;;2.45;;
46391;SDS011;32098;49.448;7.904;2022-09-29T11:04:50;3.93;;;2.30;;
46391;SDS011;32098;49.448;7.904;2022-09-29T11:07:19;6.27;;;2.50;;
46391;SDS011;32098;49.448;7.904;2022-09-29T11:09:46;3.43;;;1.60;;
46391;SDS011;32098;49.448;7.904;2022-09-29T11:14:54;5.53;;;2.27;;
46391;SDS011;32098;49.448;7.904;2022-09-29T11:17:25;4.47;;;1.97;;
46391;SDS011;32098;49.448;7.904;2022-09-29T11:20:04;4.78;;;2.10;;
46391;SDS011;32098;49.448;7.904;2022-09-29T11:22:47;5.67;;;2.00;;
46391;SDS011;32098;49.448;7.904;2022-09-29T11:28:38;4.80;;;1.93;;
46391;SDS011;32098;49.448;7.904;2022-09-29T11:39:49;6.10;;;2.00;;
46391;SDS011;32098;49.448;7.904;2022-09-29T11:45:10;3.40;;;1.33;;
46391;SDS011;32098;49.448;7.904;2022-09-29T12:04:18;2.40;;;1.33;;
46391;SDS011;32098;49.448;7.904;2022-09-29T12:09:59;4.43;;;1.13;;
46391;SDS011;32098;49.448;7.904;2022-09-29T12:17:35;3.17;;;1.03;;
46391;SDS011;32098;49.448;7.904;2022-09-29T12:20:15;4.47;;;1.00;;
46391;SDS011;32098;49.448;7.904;2022-09-29T12:22:52;2.93;;;1.03;;
46391;SDS011;32098;49.448;7.904;2022-09-29T12:25:22;4.10;;;1.27;;
46391;SDS011;32098;49.448;7.904;2022-09-29T12:27:52;6.33;;;1.60;;
46391;SDS011;32098;49.448;7.904;2022-09-29T12:30:23;1.87;;;1.20;;
46391;SDS011;32098;49.448;7.904;2022-09-29T12:39:15;1.50;;;0.70;;
46391;SDS011;32098;49.448;7.904;2022-09-29T12:41:50;3.77;;;1.10;;
46391;SDS011;32098;49.448;7.904;2022-09-29T12:47:03;2.10;;;0.87;;
46391;SDS011;32098;49.448;7.904;2022-09-29T12:49:39;2.00;;;1.20;;
46391;SDS011;32098;49.448;7.904;2022-09-29T12:52:23;4.10;;;1.30;;
46391;SDS011;32098;49.448;7.904;2022-09-29T12:54:56;5.87;;;1.67;;
46391;SDS011;32098;49.448;7.904;2022-09-29T12:57:27;4.27;;;1.93;;
46391;SDS011;32098;49.448;7.904;2022-09-29T13:00:00;6.20;;;1.97;;
46391;SDS011;32098;49.448;7.904;2022-09-29T13:11:28;3.83;;;2.07;;
46391;SDS011;32098;49.448;7.904;2022-09-29T13:22:24;5.13;;;3.50;;
46391;SDS011;32098;49.448;7.904;2022-09-29T13:28:03;3.23;;;1.83;;
46391;SDS011;32098;49.448;7.904;2022-09-29T13:31:00;5.13;;;1.70;;
46391;SDS011;32098;49.448;7.904;2022-09-29T13:33:31;4.20;;;1.90;;
46391;SDS011;32098;49.448;7.904;2022-09-29T13:35:58;4.30;;;2.03;;
46391;SDS011;32098;49.448;7.904;2022-09-29T13:38:26;3.13;;;1.40;;
46391;SDS011;32098;49.448;7.904;2022-09-29T13:46:43;2.70;;;1.70;;
46391;SDS011;32098;49.448;7.904;2022-09-29T13:49:26;2.47;;;1.40;;
46391;SDS011;32098;49.448;7.904;2022-09-29T13:54:28;3.27;;;2.07;;
46391;SDS011;32098;49.448;7.904;2022-09-29T13:59:38;4.13;;;2.03;;
46391;SDS011;32098;49.448;7.904;2022-09-29T14:05:34;2.50;;;1.60;;
46391;SDS011;32098;49.448;7.904;2022-09-29T14:08:21;2.80;;;1.67;;
46391;SDS011;32098;49.448;7.904;2022-09-29T14:10:57;5.23;;;1.73;;
46391;SDS011;32098;49.448;7.904;2022-09-29T14:13:41;2.53;;;1.57;;
46391;SDS011;32098;49.448;7.904;2022-09-29T14:16:26;3.87;;;1.53;;
46391;SDS011;32098;49.448;7.904;2022-09-29T14:19:02;2.87;;;1.70;;
46391;SDS011;32098;49.448;7.904;2022-09-29T14:21:48;2.77;;;1.57;;
46391;SDS011;32098;49.448;7.904;2022-09-29T14:27:24;3.53;;;1.80;;
46391;SDS011;32098;49.448;7.904;2022-09-29T14:29:57;3.17;;;1.73;;
46391;SDS011;32098;49.448;7.904;2022-09-29T14:37:54;3.33;;;2.40;;
46391;SDS011;32098;49.448;7.904;2022-09-29T14:40:25;8.27;;;4.47;;
46391;SDS011;32098;49.448;7.904;2022-09-29T14:45:46;6.83;;;5.83;;
46391;SDS011;32098;49.448;7.904;2022-09-29T14:48:58;6.70;;;4.80;;
46391;SDS011;32098;49.448;7.904;2022-09-29T14:51:51;6.33;;;4.70;;
46391;SDS011;32098;49.448;7.904;2022-09-29T14:57:30;9.87;;;4.50;;
46391;SDS011;32098;49.448;7.904;2022-09-29T15:02:35;7.37;;;4.50;;
46391;SDS011;32098;49.448;7.904;2022-09-29T15:05:51;6.77;;;4.33;;
46391;SDS011;32098;49.448;7.904;2022-09-29T15:07:59;5.97;;;4.90;;
46391;SDS011;32098;49.448;7.904;2022-09-29T15:10:27;6.70;;;4.63;;
46391;SDS011;32098;49.448;7.904;2022-09-29T15:15:46;5.17;;;3.50;;
46391;SDS011;32098;49.448;7.904;2022-09-29T15:18:24;3.77;;;3.17;;
46391;SDS011;32098;49.448;7.904;2022-09-29T15:21:06;6.03;;;2.90;;
46391;SDS011;32098;49.448;7.904;2022-09-29T15:24:35;5.43;;;3.50;;
46391;SDS011;32098;49.448;7.904;2022-09-29T15:27:02;6.33;;;4.10;;
46391;SDS011;32098;49.448;7.904;2022-09-29T15:29:31;6.03;;;4.10;;
46391;SDS011;32098;49.448;7.904;2022-09-29T15:31:58;4.77;;;4.27;;
46391;SDS011;32098;49.448;7.904;2022-09-29T15:34:24;5.13;;;3.40;;
46391;SDS011;32098;49.448;7.904;2022-09-29T15:36:51;5.70;;;3.40;;
46391;SDS011;32098;49.448;7.904;2022-09-29T15:41:59;5.13;;;3.07;;
46391;SDS011;32098;49.448;7.904;2022-09-29T15:44:28;6.17;;;5.57;;
46391;SDS011;32098;49.448;7.904;2022-09-29T15:46:58;6.63;;;3.70;;
46391;SDS011;32098;49.448;7.904;2022-09-29T15:49:26;7.63;;;3.53;;
46391;SDS011;32098;49.448;7.904;2022-09-29T15:51:58;7.77;;;3.93;;
46391;SDS011;32098;49.448;7.904;2022-09-29T15:54:28;5.87;;;3.30;;
46391;SDS011;32098;49.448;7.904;2022-09-29T15:57:05;4.83;;;2.97;;
46391;SDS011;32098;49.448;7.904;2022-09-29T15:59:54;2.80;;;2.10;;
46391;SDS011;32098;49.448;7.904;2022-09-29T16:02:23;5.43;;;2.23;;
46391;SDS011;32098;49.448;7.904;2022-09-29T16:04:54;3.57;;;1.67;;
46391;SDS011;32098;49.448;7.904;2022-09-29T16:07:25;3.80;;;2.13;;
46391;SDS011;32098;49.448;7.904;2022-09-29T16:09:58;5.97;;;2.80;;
46391;SDS011;32098;49.448;7.904;2022-09-29T16:12:27;4.50;;;2.90;;
46391;SDS011;32098;49.448;7.904;2022-09-29T16:15:00;3.17;;;1.97;;
46391;SDS011;32098;49.448;7.904;2022-09-29T16:17:26;3.27;;;1.50;;
46391;SDS011;32098;49.448;7.904;2022-09-29T16:19:53;3.93;;;1.47;;
46391;SDS011;32098;49.448;7.904;2022-09-29T16:22:22;3.07;;;1.17;;
46391;SDS011;32098;49.448;7.904;2022-09-29T16:24:53;1.40;;;1.20;;
46391;SDS011;32098;49.448;7.904;2022-09-29T16:27:52;3.97;;;1.53;;
46391;SDS011;32098;49.448;7.904;2022-09-29T16:30:23;3.83;;;1.70;;
46391;SDS011;32098;49.448;7.904;2022-09-29T16:32:53;2.87;;;1.30;;
46391;SDS011;32098;49.448;7.904;2022-09-29T16:38:15;1.77;;;1.30;;
46391;SDS011;32098;49.448;7.904;2022-09-29T16:40:44;2.53;;;1.17;;
46391;SDS011;32098;49.448;7.904;2022-09-29T16:43:18;3.73;;;1.57;;
46391;SDS011;32098;49.448;7.904;2022-09-29T16:45:50;2.10;;;1.30;;
46391;SDS011;32098;49.448;7.904;2022-09-29T16:48:18;2.13;;;1.30;;
46391;SDS011;32098;49.448;7.904;2022-09-29T16:50:46;1.50;;;1.23;;
46391;SDS011;32098;49.448;7.904;2022-09-29T16:53:21;1.27;;;1.10;;
46391;SDS011;32098;49.448;7.904;2022-09-29T16:55:59;2.80;;;1.47;;
46391;SDS011;32098;49.448;7.904;2022-09-29T16:58:28;2.40;;;1.83;;
46391;SDS011;32098;49.448;7.904;2022-09-29T17:00:55;5.70;;;1.70;;
46391;SDS011;32098;49.448;7.904;2022-09-29T17:03:22;2.00;;;1.60;;
46391;SDS011;32098;49.448;7.904;2022-09-29T17:05:49;2.40;;;1.47;;
46391;SDS011;32098;49.448;7.904;2022-09-29T17:08:17;3.23;;;1.30;;
46391;SDS011;32098;49.448;7.904;2022-09-29T17:10:52;2.40;;;1.50;;
46391;SDS011;32098;49.448;7.904;2022-09-29T17:13:21;1.40;;;1.30;;
46391;SDS011;32098;49.448;7.904;2022-09-29T17:15:50;3.90;;;1.40;;
46391;SDS011;32098;49.448;7.904;2022-09-29T17:18:19;2.27;;;1.30;;
46391;SDS011;32098;49.448;7.904;2022-09-29T17:20:47;3.20;;;1.50;;
46391;SDS011;32098;49.448;7.904;2022-09-29T17:23:13;2.13;;;1.10;;
46391;SDS011;32098;49.448;7.904;2022-09-29T17:25:40;2.73;;;1.30;;
46391;SDS011;32098;49.448;7.904;2022-09-29T17:28:13;2.60;;;1.13;;
46391;SDS011;32098;49.448;7.904;2022-09-29T17:30:44;1.73;;;1.23;;
46391;SDS011;32098;49.448;7.904;2022-09-29T17:33:13;4.00;;;1.40;;
46391;SDS011;32098;49.448;7.904;2022-09-29T17:35:45;2.33;;;1.60;;
46391;SDS011;32098;49.448;7.904;2022-09-29T17:38:19;1.47;;;1.30;;
46391;SDS011;32098;49.448;7.904;2022-09-29T17:43:23;3.50;;;1.80;;
46391;SDS011;32098;49.448;7.904;2022-09-29T17:45:50;8.30;;;3.37;;
46391;SDS011;32098;49.448;7.904;2022-09-29T17:48:17;5.60;;;3.73;;
46391;SDS011;32098;49.448;7.904;2022-09-29T17:50:45;6.93;;;4.40;;
46391;SDS011;32098;49.448;7.904;2022-09-29T17:53:13;8.90;;;3.80;;
46391;SDS011;32098;49.448;7.904;2022-09-29T17:55:42;6.87;;;3.93;;
46391;SDS011;32098;49.448;7.904;2022-09-29T17:58:13;5.17;;;3.00;;
46391;SDS011;32098;49.448;7.904;2022-09-29T18:00:45;3.47;;;2.70;;
46391;SDS011;32098;49.448;7.904;2022-09-29T18:03:17;4.60;;;2.13;;
46391;SDS011;32098;49.448;7.904;2022-09-29T18:05:46;3.83;;;2.20;;
46391;SDS011;32098;49.448;7.904;2022-09-29T18:08:15;5.40;;;2.97;;
46391;SDS011;32098;49.448;7.904;2022-09-29T18:10:46;3.30;;;2.20;;
46391;SDS011;32098;49.448;7.904;2022-09-29T18:13:16;2.33;;;1.63;;